sensor_id;sensor_type;location;lat;lon;timestamp;P1;durP1;ratioP1;P2;durP2;ratioP2
72920;SDS011;61064;51.654;5.476;2023-05-10T00:00:38;21.33;;;9.10;;
72920;SDS011;61064;51.654;5.476;2023-05-10T00:03:04;22.48;;;9.82;;
72920;SDS011;61064;51.654;5.476;2023-05-10T00:05:29;22.52;;;9.95;;
72920;SDS011;61064;51.654;5.476;2023-05-10T00:07:55;22.73;;;10.17;;
72920;SDS011;61064;51.654;5.476;2023-05-10T00:10:20;25.83;;;10.77;;
72920;SDS011;61064;51.654;5.476;2023-05-10T00:12:46;22.60;;;10.60;;
72920;SDS011;61064;51.654;5.476;2023-05-10T00:15:11;26.43;;;11.27;;
72920;SDS011;61064;51.654;5.476;2023-05-10T00:17:36;29.03;;;11.80;;
72920;SDS011;61064;51.654;5.476;2023-05-10T00:20:02;28.80;;;11.53;;
72920;SDS011;61064;51.654;5.476;2023-05-10T00:22:29;27.95;;;11.73;;
72920;SDS011;61064;51.654;5.476;2023-05-10T00:24:55;27.37;;;11.70;;
72920;SDS011;61064;51.654;5.476;2023-05-10T00:27:21;28.17;;;12.32;;
72920;SDS011;61064;51.654;5.476;2023-05-10T00:29:46;30.83;;;11.90;;
72920;SDS011;61064;51.654;5.476;2023-05-10T00:32:11;28.20;;;11.63;;
72920;SDS011;61064;51.654;5.476;2023-05-10T00:34:38;29.40;;;11.30;;
72920;SDS011;61064;51.654;5.476;2023-05-10T00:37:04;31.17;;;11.83;;
72920;SDS011;61064;51.654;5.476;2023-05-10T00:39:29;31.00;;;12.37;;
72920;SDS011;61064;51.654;5.476;2023-05-10T00:41:55;32.67;;;11.83;;
72920;SDS011;61064;51.654;5.476;2023-05-10T00:44:20;28.90;;;12.10;;
72920;SDS011;61064;51.654;5.476;2023-05-10T00:46:46;33.20;;;11.70;;
72920;SDS011;61064;51.654;5.476;2023-05-10T00:49:12;29.70;;;12.05;;
72920;SDS011;61064;51.654;5.476;2023-05-10T00:51:38;30.30;;;12.13;;
72920;SDS011;61064;51.654;5.476;2023-05-10T00:54:03;28.07;;;11.97;;
72920;SDS011;61064;51.654;5.476;2023-05-10T00:56:29;28.90;;;12.63;;
72920;SDS011;61064;51.654;5.476;2023-05-10T00:58:55;28.20;;;13.30;;
72920;SDS011;61064;51.654;5.476;2023-05-10T01:01:21;27.83;;;12.98;;
72920;SDS011;61064;51.654;5.476;2023-05-10T01:03:47;32.60;;;12.50;;
72920;SDS011;61064;51.654;5.476;2023-05-10T01:06:12;36.33;;;12.97;;
72920;SDS011;61064;51.654;5.476;2023-05-10T01:08:38;31.93;;;13.13;;
72920;SDS011;61064;51.654;5.476;2023-05-10T01:11:04;33.38;;;12.75;;
72920;SDS011;61064;51.654;5.476;2023-05-10T01:13:33;31.50;;;12.53;;
72920;SDS011;61064;51.654;5.476;2023-05-10T01:16:02;36.13;;;13.38;;
72920;SDS011;61064;51.654;5.476;2023-05-10T01:18:28;29.80;;;12.32;;
72920;SDS011;61064;51.654;5.476;2023-05-10T01:21:04;32.58;;;13.25;;
72920;SDS011;61064;51.654;5.476;2023-05-10T01:23:43;35.07;;;12.77;;
72920;SDS011;61064;51.654;5.476;2023-05-10T01:29:42;33.17;;;13.45;;
72920;SDS011;61064;51.654;5.476;2023-05-10T01:35:07;35.17;;;14.23;;
72920;SDS011;61064;51.654;5.476;2023-05-10T01:37:50;33.97;;;14.17;;
72920;SDS011;61064;51.654;5.476;2023-05-10T01:43:16;40.05;;;15.30;;
72920;SDS011;61064;51.654;5.476;2023-05-10T01:45:55;34.47;;;14.38;;
72920;SDS011;61064;51.654;5.476;2023-05-10T01:48:35;40.50;;;14.90;;
72920;SDS011;61064;51.654;5.476;2023-05-10T01:51:03;34.73;;;14.67;;
72920;SDS011;61064;51.654;5.476;2023-05-10T01:53:30;41.30;;;16.55;;
72920;SDS011;61064;51.654;5.476;2023-05-10T01:55:58;50.97;;;17.55;;
72920;SDS011;61064;51.654;5.476;2023-05-10T01:58:29;48.95;;;18.77;;
72920;SDS011;61064;51.654;5.476;2023-05-10T02:00:58;53.35;;;19.85;;
72920;SDS011;61064;51.654;5.476;2023-05-10T02:03:26;61.53;;;20.47;;
72920;SDS011;61064;51.654;5.476;2023-05-10T02:05:53;59.13;;;20.40;;
72920;SDS011;61064;51.654;5.476;2023-05-10T02:08:21;59.85;;;20.13;;
72920;SDS011;61064;51.654;5.476;2023-05-10T02:10:47;58.78;;;20.92;;
72920;SDS011;61064;51.654;5.476;2023-05-10T02:13:15;62.58;;;21.10;;
72920;SDS011;61064;51.654;5.476;2023-05-10T02:15:42;65.97;;;21.80;;
72920;SDS011;61064;51.654;5.476;2023-05-10T02:18:08;70.97;;;21.42;;
72920;SDS011;61064;51.654;5.476;2023-05-10T02:20:35;66.10;;;22.58;;
72920;SDS011;61064;51.654;5.476;2023-05-10T02:23:02;61.22;;;21.33;;
72920;SDS011;61064;51.654;5.476;2023-05-10T02:25:28;64.82;;;21.70;;
72920;SDS011;61064;51.654;5.476;2023-05-10T02:27:55;72.07;;;23.37;;
72920;SDS011;61064;51.654;5.476;2023-05-10T02:30:22;71.15;;;22.90;;
72920;SDS011;61064;51.654;5.476;2023-05-10T02:32:49;79.72;;;24.45;;
72920;SDS011;61064;51.654;5.476;2023-05-10T02:35:15;72.53;;;24.27;;
72920;SDS011;61064;51.654;5.476;2023-05-10T02:37:41;70.40;;;23.60;;
72920;SDS011;61064;51.654;5.476;2023-05-10T02:40:09;74.50;;;24.63;;
72920;SDS011;61064;51.654;5.476;2023-05-10T02:42:36;77.30;;;24.73;;
72920;SDS011;61064;51.654;5.476;2023-05-10T02:45:13;80.20;;;26.00;;
72920;SDS011;61064;51.654;5.476;2023-05-10T02:47:42;75.80;;;24.35;;
72920;SDS011;61064;51.654;5.476;2023-05-10T02:50:08;70.97;;;24.92;;
72920;SDS011;61064;51.654;5.476;2023-05-10T02:52:46;67.03;;;24.07;;
72920;SDS011;61064;51.654;5.476;2023-05-10T02:55:15;69.50;;;24.40;;
72920;SDS011;61064;51.654;5.476;2023-05-10T02:57:44;68.45;;;24.67;;
72920;SDS011;61064;51.654;5.476;2023-05-10T03:00:15;69.13;;;24.17;;
72920;SDS011;61064;51.654;5.476;2023-05-10T03:02:41;68.03;;;24.70;;
72920;SDS011;61064;51.654;5.476;2023-05-10T03:05:06;66.13;;;24.57;;
72920;SDS011;61064;51.654;5.476;2023-05-10T03:07:32;65.47;;;24.80;;
72920;SDS011;61064;51.654;5.476;2023-05-10T03:09:58;66.93;;;23.80;;
72920;SDS011;61064;51.654;5.476;2023-05-10T03:12:31;68.20;;;23.53;;
72920;SDS011;61064;51.654;5.476;2023-05-10T03:15:10;70.28;;;25.08;;
72920;SDS011;61064;51.654;5.476;2023-05-10T03:17:54;72.03;;;25.48;;
72920;SDS011;61064;51.654;5.476;2023-05-10T03:20:24;66.88;;;24.88;;
72920;SDS011;61064;51.654;5.476;2023-05-10T03:23:40;73.35;;;25.05;;
72920;SDS011;61064;51.654;5.476;2023-05-10T03:25:42;77.57;;;26.00;;
72920;SDS011;61064;51.654;5.476;2023-05-10T03:28:09;71.43;;;25.90;;
72920;SDS011;61064;51.654;5.476;2023-05-10T03:30:34;75.65;;;26.65;;
72920;SDS011;61064;51.654;5.476;2023-05-10T03:33:07;66.10;;;25.03;;
72920;SDS011;61064;51.654;5.476;2023-05-10T03:35:33;71.18;;;25.75;;
72920;SDS011;61064;51.654;5.476;2023-05-10T03:37:58;71.50;;;26.10;;
72920;SDS011;61064;51.654;5.476;2023-05-10T03:40:24;73.70;;;25.03;;
72920;SDS011;61064;51.654;5.476;2023-05-10T03:42:50;69.27;;;24.73;;
72920;SDS011;61064;51.654;5.476;2023-05-10T03:45:16;72.27;;;25.37;;
72920;SDS011;61064;51.654;5.476;2023-05-10T03:47:41;64.30;;;23.92;;
72920;SDS011;61064;51.654;5.476;2023-05-10T03:50:07;68.27;;;25.03;;
72920;SDS011;61064;51.654;5.476;2023-05-10T03:52:32;66.47;;;24.17;;
72920;SDS011;61064;51.654;5.476;2023-05-10T03:54:58;64.32;;;24.67;;
72920;SDS011;61064;51.654;5.476;2023-05-10T03:57:23;60.67;;;23.70;;
72920;SDS011;61064;51.654;5.476;2023-05-10T03:59:48;54.03;;;22.77;;
72920;SDS011;61064;51.654;5.476;2023-05-10T04:02:14;55.10;;;20.90;;
72920;SDS011;61064;51.654;5.476;2023-05-10T04:04:39;51.37;;;19.47;;
72920;SDS011;61064;51.654;5.476;2023-05-10T04:07:05;43.47;;;18.77;;
72920;SDS011;61064;51.654;5.476;2023-05-10T04:09:30;48.30;;;19.23;;
72920;SDS011;61064;51.654;5.476;2023-05-10T04:11:55;47.00;;;17.90;;
72920;SDS011;61064;51.654;5.476;2023-05-10T04:14:21;42.00;;;17.30;;
72920;SDS011;61064;51.654;5.476;2023-05-10T04:16:46;46.10;;;17.53;;
72920;SDS011;61064;51.654;5.476;2023-05-10T04:19:12;42.75;;;16.80;;
72920;SDS011;61064;51.654;5.476;2023-05-10T04:21:37;42.83;;;16.47;;
72920;SDS011;61064;51.654;5.476;2023-05-10T04:24:02;41.90;;;16.87;;
72920;SDS011;61064;51.654;5.476;2023-05-10T04:26:28;42.43;;;16.33;;
72920;SDS011;61064;51.654;5.476;2023-05-10T04:28:53;44.97;;;17.57;;
72920;SDS011;61064;51.654;5.476;2023-05-10T04:31:18;49.27;;;17.87;;
72920;SDS011;61064;51.654;5.476;2023-05-10T04:33:44;48.78;;;17.60;;
72920;SDS011;61064;51.654;5.476;2023-05-10T04:36:09;43.93;;;17.33;;
72920;SDS011;61064;51.654;5.476;2023-05-10T04:38:35;45.80;;;17.57;;
72920;SDS011;61064;51.654;5.476;2023-05-10T04:41:04;49.77;;;18.53;;
72920;SDS011;61064;51.654;5.476;2023-05-10T04:43:31;43.60;;;17.43;;
72920;SDS011;61064;51.654;5.476;2023-05-10T04:45:56;47.47;;;18.73;;
72920;SDS011;61064;51.654;5.476;2023-05-10T04:48:22;40.67;;;16.97;;
72920;SDS011;61064;51.654;5.476;2023-05-10T04:50:47;39.43;;;16.53;;
72920;SDS011;61064;51.654;5.476;2023-05-10T04:53:12;47.20;;;17.53;;
72920;SDS011;61064;51.654;5.476;2023-05-10T04:55:37;43.00;;;17.27;;
72920;SDS011;61064;51.654;5.476;2023-05-10T04:58:03;42.83;;;17.40;;
72920;SDS011;61064;51.654;5.476;2023-05-10T05:00:28;44.70;;;17.37;;
72920;SDS011;61064;51.654;5.476;2023-05-10T05:02:53;45.00;;;17.40;;
72920;SDS011;61064;51.654;5.476;2023-05-10T05:05:19;44.37;;;17.37;;
72920;SDS011;61064;51.654;5.476;2023-05-10T05:07:47;39.63;;;16.97;;
72920;SDS011;61064;51.654;5.476;2023-05-10T05:10:12;38.67;;;16.27;;
72920;SDS011;61064;51.654;5.476;2023-05-10T05:12:38;38.40;;;16.07;;
72920;SDS011;61064;51.654;5.476;2023-05-10T05:15:03;38.00;;;15.67;;
72920;SDS011;61064;51.654;5.476;2023-05-10T05:17:32;37.25;;;16.33;;
72920;SDS011;61064;51.654;5.476;2023-05-10T05:19:57;36.77;;;15.87;;
72920;SDS011;61064;51.654;5.476;2023-05-10T05:22:23;35.85;;;15.40;;
72920;SDS011;61064;51.654;5.476;2023-05-10T05:24:53;39.60;;;16.23;;
72920;SDS011;61064;51.654;5.476;2023-05-10T05:27:19;44.50;;;16.70;;
72920;SDS011;61064;51.654;5.476;2023-05-10T05:29:47;42.53;;;17.05;;
72920;SDS011;61064;51.654;5.476;2023-05-10T05:32:12;40.27;;;17.07;;
72920;SDS011;61064;51.654;5.476;2023-05-10T05:34:38;38.40;;;16.93;;
72920;SDS011;61064;51.654;5.476;2023-05-10T05:37:03;36.53;;;15.73;;
72920;SDS011;61064;51.654;5.476;2023-05-10T05:39:28;39.97;;;16.73;;
72920;SDS011;61064;51.654;5.476;2023-05-10T05:41:54;36.27;;;16.90;;
72920;SDS011;61064;51.654;5.476;2023-05-10T05:44:19;38.47;;;16.47;;
72920;SDS011;61064;51.654;5.476;2023-05-10T05:46:45;36.97;;;17.00;;
72920;SDS011;61064;51.654;5.476;2023-05-10T05:49:10;39.70;;;17.00;;
72920;SDS011;61064;51.654;5.476;2023-05-10T05:51:35;38.97;;;16.90;;
72920;SDS011;61064;51.654;5.476;2023-05-10T05:54:01;40.33;;;16.13;;
72920;SDS011;61064;51.654;5.476;2023-05-10T05:56:26;38.33;;;15.87;;
72920;SDS011;61064;51.654;5.476;2023-05-10T05:58:52;38.58;;;16.80;;
72920;SDS011;61064;51.654;5.476;2023-05-10T06:01:17;36.00;;;16.27;;
72920;SDS011;61064;51.654;5.476;2023-05-10T06:03:43;37.60;;;15.90;;
72920;SDS011;61064;51.654;5.476;2023-05-10T06:06:08;37.67;;;15.83;;
72920;SDS011;61064;51.654;5.476;2023-05-10T06:08:33;37.70;;;16.57;;
72920;SDS011;61064;51.654;5.476;2023-05-10T06:10:59;37.45;;;16.35;;
72920;SDS011;61064;51.654;5.476;2023-05-10T06:13:25;37.15;;;16.75;;
72920;SDS011;61064;51.654;5.476;2023-05-10T06:15:56;37.80;;;16.87;;
72920;SDS011;61064;51.654;5.476;2023-05-10T06:18:22;39.92;;;16.50;;
72920;SDS011;61064;51.654;5.476;2023-05-10T06:20:49;42.13;;;16.53;;
72920;SDS011;61064;51.654;5.476;2023-05-10T06:23:14;36.47;;;16.20;;
72920;SDS011;61064;51.654;5.476;2023-05-10T06:25:40;38.73;;;16.47;;
72920;SDS011;61064;51.654;5.476;2023-05-10T06:28:05;35.03;;;15.70;;
72920;SDS011;61064;51.654;5.476;2023-05-10T06:30:30;38.23;;;15.93;;
72920;SDS011;61064;51.654;5.476;2023-05-10T06:32:56;40.87;;;15.93;;
72920;SDS011;61064;51.654;5.476;2023-05-10T06:35:21;37.22;;;16.80;;
72920;SDS011;61064;51.654;5.476;2023-05-10T06:37:47;41.60;;;17.10;;
72920;SDS011;61064;51.654;5.476;2023-05-10T06:40:12;38.30;;;16.57;;
72920;SDS011;61064;51.654;5.476;2023-05-10T06:42:38;36.95;;;16.95;;
72920;SDS011;61064;51.654;5.476;2023-05-10T06:45:03;36.73;;;16.13;;
72920;SDS011;61064;51.654;5.476;2023-05-10T06:47:30;36.92;;;16.60;;
72920;SDS011;61064;51.654;5.476;2023-05-10T06:49:55;38.30;;;16.20;;
72920;SDS011;61064;51.654;5.476;2023-05-10T06:52:21;38.23;;;16.87;;
72920;SDS011;61064;51.654;5.476;2023-05-10T06:54:46;38.37;;;17.20;;
72920;SDS011;61064;51.654;5.476;2023-05-10T06:57:11;37.23;;;17.10;;
72920;SDS011;61064;51.654;5.476;2023-05-10T06:59:37;34.65;;;15.85;;
72920;SDS011;61064;51.654;5.476;2023-05-10T07:02:02;34.40;;;16.23;;
72920;SDS011;61064;51.654;5.476;2023-05-10T07:04:28;34.67;;;16.87;;
72920;SDS011;61064;51.654;5.476;2023-05-10T07:06:53;39.47;;;16.63;;
72920;SDS011;61064;51.654;5.476;2023-05-10T07:09:19;38.13;;;18.87;;
72920;SDS011;61064;51.654;5.476;2023-05-10T07:11:44;37.87;;;17.43;;
72920;SDS011;61064;51.654;5.476;2023-05-10T07:14:10;40.37;;;18.73;;
72920;SDS011;61064;51.654;5.476;2023-05-10T07:16:35;39.70;;;16.90;;
72920;SDS011;61064;51.654;5.476;2023-05-10T07:19:01;40.50;;;17.20;;
72920;SDS011;61064;51.654;5.476;2023-05-10T07:21:27;37.30;;;17.35;;
72920;SDS011;61064;51.654;5.476;2023-05-10T07:23:53;38.20;;;17.20;;
72920;SDS011;61064;51.654;5.476;2023-05-10T07:26:19;34.30;;;16.77;;
72920;SDS011;61064;51.654;5.476;2023-05-10T07:28:45;33.22;;;15.77;;
72920;SDS011;61064;51.654;5.476;2023-05-10T07:31:11;33.65;;;16.10;;
72920;SDS011;61064;51.654;5.476;2023-05-10T07:33:44;33.75;;;15.13;;
72920;SDS011;61064;51.654;5.476;2023-05-10T07:36:09;33.47;;;15.90;;
72920;SDS011;61064;51.654;5.476;2023-05-10T07:38:35;34.00;;;14.77;;
72920;SDS011;61064;51.654;5.476;2023-05-10T07:41:00;29.00;;;13.97;;
72920;SDS011;61064;51.654;5.476;2023-05-10T07:43:25;31.87;;;14.00;;
72920;SDS011;61064;51.654;5.476;2023-05-10T07:45:51;30.93;;;14.27;;
72920;SDS011;61064;51.654;5.476;2023-05-10T07:48:16;30.13;;;14.07;;
72920;SDS011;61064;51.654;5.476;2023-05-10T07:50:42;31.58;;;14.18;;
72920;SDS011;61064;51.654;5.476;2023-05-10T07:53:07;31.23;;;14.57;;
72920;SDS011;61064;51.654;5.476;2023-05-10T07:55:32;32.97;;;14.63;;
72920;SDS011;61064;51.654;5.476;2023-05-10T07:57:58;30.83;;;14.80;;
72920;SDS011;61064;51.654;5.476;2023-05-10T08:00:26;31.45;;;15.20;;
72920;SDS011;61064;51.654;5.476;2023-05-10T08:02:51;34.30;;;15.73;;
72920;SDS011;61064;51.654;5.476;2023-05-10T08:05:17;34.37;;;15.93;;
72920;SDS011;61064;51.654;5.476;2023-05-10T08:07:43;33.83;;;15.87;;
72920;SDS011;61064;51.654;5.476;2023-05-10T08:10:08;34.55;;;15.98;;
72920;SDS011;61064;51.654;5.476;2023-05-10T08:12:34;31.93;;;15.67;;
72920;SDS011;61064;51.654;5.476;2023-05-10T08:15:00;35.60;;;15.93;;
72920;SDS011;61064;51.654;5.476;2023-05-10T08:17:25;34.03;;;15.80;;
72920;SDS011;61064;51.654;5.476;2023-05-10T08:19:51;34.43;;;16.03;;
72920;SDS011;61064;51.654;5.476;2023-05-10T08:22:16;31.15;;;15.65;;
72920;SDS011;61064;51.654;5.476;2023-05-10T08:24:41;35.43;;;15.47;;
72920;SDS011;61064;51.654;5.476;2023-05-10T08:27:07;28.23;;;14.10;;
72920;SDS011;61064;51.654;5.476;2023-05-10T08:29:33;31.30;;;14.18;;
72920;SDS011;61064;51.654;5.476;2023-05-10T08:31:59;23.73;;;11.83;;
72920;SDS011;61064;51.654;5.476;2023-05-10T08:34:25;24.77;;;12.15;;
72920;SDS011;61064;51.654;5.476;2023-05-10T08:36:51;23.65;;;12.90;;
72920;SDS011;61064;51.654;5.476;2023-05-10T08:39:16;24.00;;;11.67;;
72920;SDS011;61064;51.654;5.476;2023-05-10T08:41:42;26.80;;;12.60;;
72920;SDS011;61064;51.654;5.476;2023-05-10T08:44:09;24.58;;;11.80;;
72920;SDS011;61064;51.654;5.476;2023-05-10T08:46:35;28.83;;;12.68;;
72920;SDS011;61064;51.654;5.476;2023-05-10T08:49:04;23.50;;;11.67;;
72920;SDS011;61064;51.654;5.476;2023-05-10T08:51:39;23.50;;;11.45;;
72920;SDS011;61064;51.654;5.476;2023-05-10T08:54:08;22.60;;;11.27;;
72920;SDS011;61064;51.654;5.476;2023-05-10T08:56:37;20.73;;;10.73;;
72920;SDS011;61064;51.654;5.476;2023-05-10T08:59:03;24.33;;;11.83;;
72920;SDS011;61064;51.654;5.476;2023-05-10T09:01:28;22.13;;;10.13;;
72920;SDS011;61064;51.654;5.476;2023-05-10T09:03:56;20.98;;;10.23;;
72920;SDS011;61064;51.654;5.476;2023-05-10T09:06:22;19.33;;;9.88;;
72920;SDS011;61064;51.654;5.476;2023-05-10T09:08:48;21.98;;;9.73;;
72920;SDS011;61064;51.654;5.476;2023-05-10T09:11:14;20.97;;;8.90;;
72920;SDS011;61064;51.654;5.476;2023-05-10T09:13:41;20.50;;;9.65;;
72920;SDS011;61064;51.654;5.476;2023-05-10T09:16:07;17.13;;;8.48;;
72920;SDS011;61064;51.654;5.476;2023-05-10T09:18:32;18.67;;;8.80;;
72920;SDS011;61064;51.654;5.476;2023-05-10T09:20:57;16.57;;;8.03;;
72920;SDS011;61064;51.654;5.476;2023-05-10T09:23:23;19.17;;;8.70;;
72920;SDS011;61064;51.654;5.476;2023-05-10T09:26:03;15.98;;;7.75;;
72920;SDS011;61064;51.654;5.476;2023-05-10T09:29:12;16.05;;;8.48;;
72920;SDS011;61064;51.654;5.476;2023-05-10T09:31:19;15.80;;;7.78;;
72920;SDS011;61064;51.654;5.476;2023-05-10T09:33:45;16.30;;;7.67;;
72920;SDS011;61064;51.654;5.476;2023-05-10T09:36:12;14.48;;;7.43;;
72920;SDS011;61064;51.654;5.476;2023-05-10T09:38:47;15.93;;;7.15;;
72920;SDS011;61064;51.654;5.476;2023-05-10T09:41:18;15.33;;;7.47;;
72920;SDS011;61064;51.654;5.476;2023-05-10T09:43:45;16.52;;;8.30;;
72920;SDS011;61064;51.654;5.476;2023-05-10T09:46:10;20.50;;;9.57;;
72920;SDS011;61064;51.654;5.476;2023-05-10T09:48:46;18.43;;;9.43;;
72920;SDS011;61064;51.654;5.476;2023-05-10T09:51:45;16.98;;;9.13;;
72920;SDS011;61064;51.654;5.476;2023-05-10T09:54:14;15.23;;;8.50;;
72920;SDS011;61064;51.654;5.476;2023-05-10T09:56:41;16.70;;;8.93;;
72920;SDS011;61064;51.654;5.476;2023-05-10T09:59:11;18.43;;;8.90;;
72920;SDS011;61064;51.654;5.476;2023-05-10T10:01:37;18.65;;;8.98;;
72920;SDS011;61064;51.654;5.476;2023-05-10T10:04:04;17.60;;;8.93;;
72920;SDS011;61064;51.654;5.476;2023-05-10T10:06:34;17.60;;;8.98;;
72920;SDS011;61064;51.654;5.476;2023-05-10T10:09:01;16.98;;;8.82;;
72920;SDS011;61064;51.654;5.476;2023-05-10T10:11:27;14.77;;;8.43;;
72920;SDS011;61064;51.654;5.476;2023-05-10T10:13:53;20.45;;;9.27;;
72920;SDS011;61064;51.654;5.476;2023-05-10T10:16:21;18.67;;;10.40;;
72920;SDS011;61064;51.654;5.476;2023-05-10T10:18:47;21.73;;;10.57;;
72920;SDS011;61064;51.654;5.476;2023-05-10T10:21:13;19.13;;;10.15;;
72920;SDS011;61064;51.654;5.476;2023-05-10T10:23:40;18.15;;;9.40;;
72920;SDS011;61064;51.654;5.476;2023-05-10T10:26:05;16.70;;;9.57;;
72920;SDS011;61064;51.654;5.476;2023-05-10T10:28:35;16.88;;;9.07;;
72920;SDS011;61064;51.654;5.476;2023-05-10T10:31:17;21.40;;;10.57;;
72920;SDS011;61064;51.654;5.476;2023-05-10T10:36:28;20.67;;;10.25;;
72920;SDS011;61064;51.654;5.476;2023-05-10T10:38:54;24.73;;;11.47;;
72920;SDS011;61064;51.654;5.476;2023-05-10T10:52:39;40.40;;;22.80;;
72920;SDS011;61064;51.654;5.476;2023-05-10T11:00:31;30.52;;;13.57;;
72920;SDS011;61064;51.654;5.476;2023-05-10T11:03:11;17.10;;;8.45;;
72920;SDS011;61064;51.654;5.476;2023-05-10T11:10:34;27.97;;;14.17;;
72920;SDS011;61064;51.654;5.476;2023-05-10T11:13:06;26.15;;;13.65;;
72920;SDS011;61064;51.654;5.476;2023-05-10T11:18:20;26.48;;;15.07;;
72920;SDS011;61064;51.654;5.476;2023-05-10T11:20:59;17.05;;;10.70;;
72920;SDS011;61064;51.654;5.476;2023-05-10T11:23:31;14.98;;;8.80;;
72920;SDS011;61064;51.654;5.476;2023-05-10T11:25:59;15.60;;;9.25;;
72920;SDS011;61064;51.654;5.476;2023-05-10T11:28:26;16.90;;;9.53;;
72920;SDS011;61064;51.654;5.476;2023-05-10T11:30:53;19.27;;;10.93;;
72920;SDS011;61064;51.654;5.476;2023-05-10T11:33:19;17.20;;;9.82;;
72920;SDS011;61064;51.654;5.476;2023-05-10T11:35:45;16.37;;;8.40;;
72920;SDS011;61064;51.654;5.476;2023-05-10T11:38:11;17.17;;;9.40;;
72920;SDS011;61064;51.654;5.476;2023-05-10T11:40:37;16.85;;;9.38;;
72920;SDS011;61064;51.654;5.476;2023-05-10T11:43:04;14.77;;;7.78;;
72920;SDS011;61064;51.654;5.476;2023-05-10T11:45:33;12.40;;;7.20;;
72920;SDS011;61064;51.654;5.476;2023-05-10T11:47:59;13.32;;;7.07;;
72920;SDS011;61064;51.654;5.476;2023-05-10T11:50:26;11.68;;;6.88;;
72920;SDS011;61064;51.654;5.476;2023-05-10T11:52:56;13.80;;;7.82;;
72920;SDS011;61064;51.654;5.476;2023-05-10T11:55:22;14.05;;;7.78;;
72920;SDS011;61064;51.654;5.476;2023-05-10T11:57:55;15.30;;;7.57;;
72920;SDS011;61064;51.654;5.476;2023-05-10T12:00:25;13.82;;;7.63;;
72920;SDS011;61064;51.654;5.476;2023-05-10T12:02:50;14.77;;;7.47;;
72920;SDS011;61064;51.654;5.476;2023-05-10T12:05:16;13.85;;;7.90;;
72920;SDS011;61064;51.654;5.476;2023-05-10T12:07:42;15.83;;;9.83;;
72920;SDS011;61064;51.654;5.476;2023-05-10T12:10:11;14.50;;;8.30;;
72920;SDS011;61064;51.654;5.476;2023-05-10T12:12:46;11.73;;;7.35;;
72920;SDS011;61064;51.654;5.476;2023-05-10T12:15:19;13.85;;;7.30;;
72920;SDS011;61064;51.654;5.476;2023-05-10T12:17:48;13.88;;;8.00;;
72920;SDS011;61064;51.654;5.476;2023-05-10T12:22:45;14.00;;;8.43;;
72920;SDS011;61064;51.654;5.476;2023-05-10T12:25:11;16.77;;;8.70;;
72920;SDS011;61064;51.654;5.476;2023-05-10T12:27:37;14.70;;;8.13;;
72920;SDS011;61064;51.654;5.476;2023-05-10T12:30:02;14.70;;;8.77;;
72920;SDS011;61064;51.654;5.476;2023-05-10T12:32:40;15.73;;;9.30;;
72920;SDS011;61064;51.654;5.476;2023-05-10T12:35:06;16.15;;;9.25;;
72920;SDS011;61064;51.654;5.476;2023-05-10T12:37:33;13.30;;;9.07;;
72920;SDS011;61064;51.654;5.476;2023-05-10T12:40:04;14.93;;;9.18;;
72920;SDS011;61064;51.654;5.476;2023-05-10T12:42:30;17.90;;;7.80;;
72920;SDS011;61064;51.654;5.476;2023-05-10T12:44:57;21.85;;;9.48;;
72920;SDS011;61064;51.654;5.476;2023-05-10T12:47:22;37.50;;;11.23;;
72920;SDS011;61064;51.654;5.476;2023-05-10T12:49:47;21.55;;;9.45;;
72920;SDS011;61064;51.654;5.476;2023-05-10T12:52:13;14.47;;;7.17;;
72920;SDS011;61064;51.654;5.476;2023-05-10T12:54:38;17.50;;;6.63;;
72920;SDS011;61064;51.654;5.476;2023-05-10T12:57:03;13.97;;;5.80;;
72920;SDS011;61064;51.654;5.476;2023-05-10T12:59:29;9.90;;;5.20;;
72920;SDS011;61064;51.654;5.476;2023-05-10T13:01:54;10.50;;;5.27;;
72920;SDS011;61064;51.654;5.476;2023-05-10T13:04:20;14.40;;;6.63;;
72920;SDS011;61064;51.654;5.476;2023-05-10T13:06:45;18.03;;;7.77;;
72920;SDS011;61064;51.654;5.476;2023-05-10T13:09:10;14.23;;;7.80;;
72920;SDS011;61064;51.654;5.476;2023-05-10T13:11:36;13.50;;;7.00;;
72920;SDS011;61064;51.654;5.476;2023-05-10T13:14:01;12.90;;;6.33;;
72920;SDS011;61064;51.654;5.476;2023-05-10T13:16:28;12.43;;;5.75;;
72920;SDS011;61064;51.654;5.476;2023-05-10T13:18:53;12.20;;;5.43;;
72920;SDS011;61064;51.654;5.476;2023-05-10T13:21:18;9.20;;;4.83;;
72920;SDS011;61064;51.654;5.476;2023-05-10T13:23:44;10.47;;;4.40;;
72920;SDS011;61064;51.654;5.476;2023-05-10T13:26:09;10.20;;;4.47;;
72920;SDS011;61064;51.654;5.476;2023-05-10T13:28:35;9.77;;;4.37;;
72920;SDS011;61064;51.654;5.476;2023-05-10T13:31:00;10.38;;;5.25;;
72920;SDS011;61064;51.654;5.476;2023-05-10T13:33:25;9.73;;;5.00;;
72920;SDS011;61064;51.654;5.476;2023-05-10T13:35:51;12.43;;;5.37;;
72920;SDS011;61064;51.654;5.476;2023-05-10T13:38:16;11.37;;;5.33;;
72920;SDS011;61064;51.654;5.476;2023-05-10T13:40:42;10.57;;;5.83;;
72920;SDS011;61064;51.654;5.476;2023-05-10T13:43:07;14.37;;;7.07;;
72920;SDS011;61064;51.654;5.476;2023-05-10T13:45:32;18.42;;;9.98;;
72920;SDS011;61064;51.654;5.476;2023-05-10T13:47:58;23.67;;;12.77;;
72920;SDS011;61064;51.654;5.476;2023-05-10T13:50:23;22.57;;;11.13;;
72920;SDS011;61064;51.654;5.476;2023-05-10T13:52:48;20.03;;;9.97;;
72920;SDS011;61064;51.654;5.476;2023-05-10T13:55:14;18.70;;;10.23;;
72920;SDS011;61064;51.654;5.476;2023-05-10T13:57:39;13.90;;;8.20;;
72920;SDS011;61064;51.654;5.476;2023-05-10T14:00:05;15.00;;;8.30;;
72920;SDS011;61064;51.654;5.476;2023-05-10T14:02:30;20.77;;;11.47;;
72920;SDS011;61064;51.654;5.476;2023-05-10T14:04:56;34.90;;;19.30;;
72920;SDS011;61064;51.654;5.476;2023-05-10T14:07:21;20.87;;;12.67;;
72920;SDS011;61064;51.654;5.476;2023-05-10T14:09:47;17.73;;;11.93;;
72920;SDS011;61064;51.654;5.476;2023-05-10T14:12:12;14.57;;;9.57;;
72920;SDS011;61064;51.654;5.476;2023-05-10T14:14:39;13.32;;;8.65;;
72920;SDS011;61064;51.654;5.476;2023-05-10T14:17:04;13.50;;;8.93;;
72920;SDS011;61064;51.654;5.476;2023-05-10T14:19:30;13.87;;;9.10;;
72920;SDS011;61064;51.654;5.476;2023-05-10T14:21:57;13.45;;;8.07;;
72920;SDS011;61064;51.654;5.476;2023-05-10T14:24:22;15.77;;;9.53;;
72920;SDS011;61064;51.654;5.476;2023-05-10T14:26:50;14.98;;;8.75;;
72920;SDS011;61064;51.654;5.476;2023-05-10T14:29:18;15.40;;;9.95;;
72920;SDS011;61064;51.654;5.476;2023-05-10T14:31:44;13.50;;;8.77;;
72920;SDS011;61064;51.654;5.476;2023-05-10T14:34:09;13.97;;;9.40;;
72920;SDS011;61064;51.654;5.476;2023-05-10T14:36:35;16.87;;;9.90;;
72920;SDS011;61064;51.654;5.476;2023-05-10T14:39:00;14.30;;;9.60;;
72920;SDS011;61064;51.654;5.476;2023-05-10T14:41:25;15.37;;;10.57;;
72920;SDS011;61064;51.654;5.476;2023-05-10T14:43:51;18.20;;;10.87;;
72920;SDS011;61064;51.654;5.476;2023-05-10T14:46:16;16.67;;;9.85;;
72920;SDS011;61064;51.654;5.476;2023-05-10T14:48:41;14.27;;;10.00;;
72920;SDS011;61064;51.654;5.476;2023-05-10T14:51:07;16.53;;;10.53;;
72920;SDS011;61064;51.654;5.476;2023-05-10T14:53:32;15.60;;;10.60;;
72920;SDS011;61064;51.654;5.476;2023-05-10T14:55:58;14.32;;;9.63;;
72920;SDS011;61064;51.654;5.476;2023-05-10T14:58:25;15.88;;;10.43;;
72920;SDS011;61064;51.654;5.476;2023-05-10T15:00:50;17.03;;;11.97;;
72920;SDS011;61064;51.654;5.476;2023-05-10T15:03:16;16.70;;;11.03;;